Nearby METAR Reports

 

KSJC - San Jose, California, USA
Distance from station: NØ 14km
Oppdatert: 26/01/2020 08:53
Haze, Overskyet
Haze, Overskyet
 Vind fra NV
Vind: NV 7 km/h
Temperatur: 15°C
Duggpunkt: 12°C
Fuktighet: 82%
Barometer: 1020.7 hPa
Oversikt: Haze
Clouds: Overskyet
Visibility: 6 km
Cloud details: Delvis skyet 30 m
Delvis skyet 610 m
Overskyet 945 m
2020/01/26 07:53 KSJC 260753Z 32004KT 4SM HZ SCT001 SCT020 OVC031 15/12 A3014 RMK AO2 SLP204 T01500122 401890111 $
KNUQ - Moffett Nas/Mtn, California, USA
Distance from station: N 14km
Oppdatert: 21/11/2019 17:56
NOT Current

 
Barometer: 1011.2 hPa
2019/11/21 16:56 KNUQ 211656Z AUTO A2986 RMK AO2 SLP116 PWINO $
 
KPAO - Palo Alto, California, USA
Distance from station: NNV 23km
Oppdatert: 26/01/2020 05:47
NOT Current
Overskyet
Overskyet
 Vind fra calm
Vind: Stille
Temperatur: 14°C
Duggpunkt: 12°C
Fuktighet: 88%
Barometer: 1020 hPa
Clouds: Overskyet
Visibility: 16 km
Cloud details: Delvis skyet 762 m
Overskyet 1067 m
2020/01/26 04:47 KPAO 260447Z 00000KT 10SM SCT025 OVC035 14/12 A3012 RMK LAST
KRHV - San Jose/Reid, California, USA
Distance from station: ØNØ 19km
Oppdatert: 26/01/2020 06:55
NOT Current
Hovedsaklig skyet
Hovedsaklig skyet
 Vind fra SSV
Vind: SSV 6 km/h
Temperatur: 16°C
Duggpunkt: 13°C
Fuktighet: 83%
Barometer: 1020.3 hPa
Clouds: Hovedsaklig skyet
Visibility: 16 km
Cloud details: Hovedsaklig skyet 1067 m
Hovedsaklig skyet 4572 m
2020/01/26 05:55 KRHV 260555Z 21003KT 10SM BKN035 BKN150 16/13 A3013 RMK LAST
 
KOAK - Oakland, California, USA
Distance from station: NNV 50km
Oppdatert: 26/01/2020 09:31
Overskyet
Overskyet
 Vind fra SØ
Vind: SØ 7 km/h
Temperatur: 15°C
Duggpunkt: 13°C
Fuktighet: 88%
Barometer: 1020.3 hPa
Clouds: Overskyet
Visibility: 16 km
Cloud details: Few Clouds 213 m
Hovedsaklig skyet 518 m
Overskyet 1219 m
2020/01/26 08:31 KOAK 260831Z 13004KT 10SM FEW007 BKN017 OVC040 15/13 A3013 RMK AO2 T01500133 $
KSQL - San Carlos Airpo, California, USA
Distance from station: NV 34km
Oppdatert: 26/01/2020 09:20
Overskyet
Overskyet
 Vind fra SØ
Vind: SØ 7 km/h
Temperatur: 14°C
Duggpunkt: 14°C
Fuktighet: 100%
Barometer: 1020.7 hPa
Clouds: Overskyet
Visibility: 16 km
Cloud details: Hovedsaklig skyet 671 m
Hovedsaklig skyet 1981 m
Overskyet 2134 m
2020/01/26 08:20 KSQL 260820Z AUTO 14004KT 10SM BKN022 BKN065 OVC070 14/14 A3014 RMK AO2
 
KSFO - San Francisco, California, USA
Distance from station: NV 49km
Oppdatert: 26/01/2020 09:22
Hovedsaklig skyet
Hovedsaklig skyet
 Vind fra SSØ
Vind: SSØ 13 km/h
Temperatur: 14°C
Duggpunkt: 12°C
Fuktighet: 88%
Barometer: 1020 hPa
Clouds: Hovedsaklig skyet
Visibility: 16 km
Cloud details: Delvis skyet 457 m
Hovedsaklig skyet 2438 m
2020/01/26 08:22 KSFO 260822Z 16007KT 10SM SCT015 BKN080 14/12 A3012 RMK AO2 T01440122
KE16 - San Martin, California, USA
Distance from station: ØSØ 43km
Oppdatert: 14/11/2019 10:35
NOT Current
Overskyet
Overskyet
 Vind fra SØ
Vind: SØ 11 km/h
Temperatur: 12°C
Duggpunkt: 10°C
Fuktighet: 88%
Barometer: 1017.6 hPa
Clouds: Overskyet
Visibility: 16 km
Cloud details: Overskyet 427 m
2019/11/14 09:35 KE16 140935Z AUTO 13006KT 10SM OVC014 12/10 A3005 RMK AO2
 
KWVI - Watsonville, California, USA
Distance from station: SSØ 44km
Oppdatert: 26/01/2020 09:11
Mist, Overskyet
Mist, Overskyet
 Vind fra calm
Vind: Stille
Temperatur: 13°C
Duggpunkt: 13°C
Fuktighet: 100%
Barometer: 1021 hPa
Oversikt: Mist
Clouds: Overskyet
Visibility: 8 km
Cloud details: Hovedsaklig skyet 122 m
Overskyet 823 m
2020/01/26 08:11 KWVI 260811Z AUTO 00000KT 5SM BR BKN004 OVC027 13/13 A3015 RMK AO2 T01330128
KHAF - Half Moon Bay, California, USA
Distance from station: VNV 50km
Oppdatert: 26/01/2020 09:20
Tåke, Overskyet
Tåke, Overskyet
 Vind fra SØ
Vind: SØ 9 km/h
Temperatur: 13°C
Duggpunkt: 13°C
Fuktighet: 100%
Barometer: 1020.7 hPa
Oversikt: Tåke
Clouds: Overskyet
Visibility: 0.8 km
Cloud details: Overskyet 61 m
2020/01/26 08:20 KHAF 260820Z AUTO 14005KT 1/2SM FG OVC002 13/13 A3014 RMK AO2
 
KHWD - Hayward, California, USA
Distance from station: N 44km
Oppdatert: 26/01/2020 09:10
Overskyet
Overskyet
 Vind fra calm
Vind: Stille
Temperatur: 14°C
Duggpunkt: 13°C
Fuktighet: 94%
Barometer: 1020.3 hPa
Clouds: Overskyet
Visibility: 16 km
Cloud details: Hovedsaklig skyet 732 m
Hovedsaklig skyet 1097 m
Overskyet 1829 m
2020/01/26 08:10 KHWD 260810Z AUTO 00000KT 10SM BKN024 BKN036 OVC060 14/13 A3013 RMK AO2 T01440133
KLVK - Livermore, California, USA
Distance from station: NNØ 51km
Oppdatert: 26/01/2020 09:20
Overskyet
Overskyet
 Vind fra calm
Vind: Stille
Temperatur: 13°C
Duggpunkt: 13°C
Fuktighet: 100%
Barometer: 1020.3 hPa
Clouds: Overskyet
Visibility: 11 km
Cloud details: Few Clouds 274 m
Overskyet 1158 m
2020/01/26 08:20 KLVK 260820Z AUTO 00000KT 7SM FEW009 OVC038 13/13 A3013 RMK AO2 RAE14 P0000 T01330128